sensor_id;sensor_type;location;lat;lon;timestamp;P1;durP1;ratioP1;P2;durP2;ratioP2
40669;SDS011;26355;45.528;9.234;2023-07-31T00:01:43;20.63;;;12.75;;
40669;SDS011;26355;45.528;9.234;2023-07-31T00:04:09;21.90;;;14.13;;
40669;SDS011;26355;45.528;9.234;2023-07-31T00:06:34;22.33;;;14.00;;
40669;SDS011;26355;45.528;9.234;2023-07-31T00:09:00;23.33;;;14.60;;
40669;SDS011;26355;45.528;9.234;2023-07-31T00:11:25;23.75;;;14.85;;
40669;SDS011;26355;45.528;9.234;2023-07-31T00:13:52;23.52;;;15.85;;
40669;SDS011;26355;45.528;9.234;2023-07-31T00:16:18;22.35;;;14.80;;
40669;SDS011;26355;45.528;9.234;2023-07-31T00:18:44;23.23;;;15.05;;
40669;SDS011;26355;45.528;9.234;2023-07-31T00:21:10;24.63;;;15.13;;
40669;SDS011;26355;45.528;9.234;2023-07-31T00:23:35;22.40;;;14.90;;
40669;SDS011;26355;45.528;9.234;2023-07-31T00:26:01;21.23;;;14.68;;
40669;SDS011;26355;45.528;9.234;2023-07-31T00:28:26;23.13;;;14.93;;
40669;SDS011;26355;45.528;9.234;2023-07-31T00:30:53;21.75;;;14.45;;
40669;SDS011;26355;45.528;9.234;2023-07-31T00:33:19;22.55;;;14.50;;
40669;SDS011;26355;45.528;9.234;2023-07-31T00:35:44;20.83;;;14.48;;
40669;SDS011;26355;45.528;9.234;2023-07-31T00:38:10;22.45;;;14.23;;
40669;SDS011;26355;45.528;9.234;2023-07-31T00:40:36;22.08;;;14.20;;
40669;SDS011;26355;45.528;9.234;2023-07-31T00:43:02;23.17;;;14.02;;
40669;SDS011;26355;45.528;9.234;2023-07-31T00:45:28;23.17;;;14.10;;
40669;SDS011;26355;45.528;9.234;2023-07-31T00:47:54;20.48;;;11.98;;
40669;SDS011;26355;45.528;9.234;2023-07-31T00:50:22;19.85;;;10.80;;
40669;SDS011;26355;45.528;9.234;2023-07-31T00:52:49;18.45;;;10.27;;
40669;SDS011;26355;45.528;9.234;2023-07-31T00:55:15;18.88;;;10.02;;
40669;SDS011;26355;45.528;9.234;2023-07-31T00:57:41;18.83;;;9.88;;
40669;SDS011;26355;45.528;9.234;2023-07-31T01:10:19;15.98;;;7.53;;
40669;SDS011;26355;45.528;9.234;2023-07-31T01:13:40;16.48;;;6.97;;
40669;SDS011;26355;45.528;9.234;2023-07-31T01:17:10;16.90;;;7.47;;
40669;SDS011;26355;45.528;9.234;2023-07-31T01:20:38;15.27;;;7.30;;
40669;SDS011;26355;45.528;9.234;2023-07-31T01:24:20;15.60;;;7.53;;
40669;SDS011;26355;45.528;9.234;2023-07-31T01:50:41;16.05;;;6.90;;
40669;SDS011;26355;45.528;9.234;2023-07-31T01:54:05;17.25;;;6.82;;
40669;SDS011;26355;45.528;9.234;2023-07-31T01:57:41;17.55;;;7.13;;
40669;SDS011;26355;45.528;9.234;2023-07-31T02:01:04;17.77;;;7.20;;
40669;SDS011;26355;45.528;9.234;2023-07-31T02:10:46;17.55;;;6.65;;
40669;SDS011;26355;45.528;9.234;2023-07-31T02:17:49;17.98;;;7.28;;
40669;SDS011;26355;45.528;9.234;2023-07-31T02:21:21;14.70;;;6.60;;
40669;SDS011;26355;45.528;9.234;2023-07-31T02:25:01;15.15;;;6.40;;
40669;SDS011;26355;45.528;9.234;2023-07-31T02:32:28;15.52;;;5.88;;
40669;SDS011;26355;45.528;9.234;2023-07-31T02:46:28;13.95;;;5.47;;
40669;SDS011;26355;45.528;9.234;2023-07-31T02:48:53;16.13;;;5.60;;
40669;SDS011;26355;45.528;9.234;2023-07-31T02:51:19;14.52;;;5.13;;
40669;SDS011;26355;45.528;9.234;2023-07-31T02:53:46;15.07;;;5.50;;
40669;SDS011;26355;45.528;9.234;2023-07-31T02:56:12;14.30;;;5.43;;
40669;SDS011;26355;45.528;9.234;2023-07-31T02:58:38;12.85;;;5.10;;
40669;SDS011;26355;45.528;9.234;2023-07-31T03:01:04;17.77;;;5.60;;
40669;SDS011;26355;45.528;9.234;2023-07-31T03:03:29;12.75;;;4.75;;
40669;SDS011;26355;45.528;9.234;2023-07-31T03:05:55;13.23;;;5.20;;
40669;SDS011;26355;45.528;9.234;2023-07-31T03:08:20;13.10;;;4.78;;
40669;SDS011;26355;45.528;9.234;2023-07-31T03:10:46;14.85;;;4.90;;
40669;SDS011;26355;45.528;9.234;2023-07-31T03:13:12;14.18;;;5.18;;
40669;SDS011;26355;45.528;9.234;2023-07-31T03:15:37;12.75;;;4.93;;
40669;SDS011;26355;45.528;9.234;2023-07-31T03:18:03;14.45;;;5.10;;
40669;SDS011;26355;45.528;9.234;2023-07-31T03:20:28;14.32;;;4.85;;
40669;SDS011;26355;45.528;9.234;2023-07-31T03:22:54;14.65;;;4.95;;
40669;SDS011;26355;45.528;9.234;2023-07-31T03:25:19;13.52;;;4.95;;
40669;SDS011;26355;45.528;9.234;2023-07-31T03:27:45;12.85;;;4.80;;
40669;SDS011;26355;45.528;9.234;2023-07-31T03:30:10;11.90;;;4.80;;
40669;SDS011;26355;45.528;9.234;2023-07-31T03:32:36;13.65;;;4.82;;
40669;SDS011;26355;45.528;9.234;2023-07-31T03:35:02;13.90;;;5.03;;
40669;SDS011;26355;45.528;9.234;2023-07-31T03:37:27;14.20;;;4.95;;
40669;SDS011;26355;45.528;9.234;2023-07-31T03:39:54;14.47;;;5.33;;
40669;SDS011;26355;45.528;9.234;2023-07-31T03:42:19;13.48;;;4.88;;
40669;SDS011;26355;45.528;9.234;2023-07-31T03:44:45;13.68;;;4.93;;
40669;SDS011;26355;45.528;9.234;2023-07-31T03:47:10;14.60;;;4.85;;
40669;SDS011;26355;45.528;9.234;2023-07-31T03:49:36;15.73;;;5.07;;
40669;SDS011;26355;45.528;9.234;2023-07-31T03:52:02;12.02;;;4.53;;
40669;SDS011;26355;45.528;9.234;2023-07-31T03:54:27;13.25;;;4.72;;
40669;SDS011;26355;45.528;9.234;2023-07-31T03:56:53;11.95;;;4.53;;
40669;SDS011;26355;45.528;9.234;2023-07-31T03:59:18;14.18;;;5.00;;
40669;SDS011;26355;45.528;9.234;2023-07-31T04:01:44;12.13;;;4.55;;
40669;SDS011;26355;45.528;9.234;2023-07-31T04:04:12;12.80;;;4.45;;
40669;SDS011;26355;45.528;9.234;2023-07-31T04:06:38;12.88;;;4.80;;
40669;SDS011;26355;45.528;9.234;2023-07-31T04:09:04;13.68;;;4.70;;
40669;SDS011;26355;45.528;9.234;2023-07-31T04:11:29;12.43;;;4.70;;
40669;SDS011;26355;45.528;9.234;2023-07-31T04:13:55;12.73;;;4.90;;
40669;SDS011;26355;45.528;9.234;2023-07-31T04:16:20;11.35;;;4.53;;
40669;SDS011;26355;45.528;9.234;2023-07-31T04:18:46;13.60;;;4.93;;
40669;SDS011;26355;45.528;9.234;2023-07-31T04:21:11;11.98;;;4.40;;
40669;SDS011;26355;45.528;9.234;2023-07-31T04:23:37;13.60;;;4.80;;
40669;SDS011;26355;45.528;9.234;2023-07-31T04:26:03;11.68;;;4.38;;
40669;SDS011;26355;45.528;9.234;2023-07-31T04:28:28;14.10;;;5.05;;
40669;SDS011;26355;45.528;9.234;2023-07-31T04:30:56;12.20;;;4.57;;
40669;SDS011;26355;45.528;9.234;2023-07-31T04:33:22;12.90;;;4.65;;
40669;SDS011;26355;45.528;9.234;2023-07-31T04:35:51;14.38;;;4.82;;
40669;SDS011;26355;45.528;9.234;2023-07-31T04:38:18;13.80;;;5.00;;
40669;SDS011;26355;45.528;9.234;2023-07-31T04:40:45;11.63;;;4.72;;
40669;SDS011;26355;45.528;9.234;2023-07-31T04:43:10;13.40;;;4.50;;
40669;SDS011;26355;45.528;9.234;2023-07-31T04:45:36;13.00;;;4.70;;
40669;SDS011;26355;45.528;9.234;2023-07-31T04:48:01;12.10;;;4.70;;
40669;SDS011;26355;45.528;9.234;2023-07-31T04:50:27;13.57;;;4.53;;
40669;SDS011;26355;45.528;9.234;2023-07-31T04:52:55;12.93;;;4.95;;
40669;SDS011;26355;45.528;9.234;2023-07-31T04:55:20;13.52;;;4.50;;
40669;SDS011;26355;45.528;9.234;2023-07-31T04:57:46;14.40;;;5.22;;
40669;SDS011;26355;45.528;9.234;2023-07-31T05:00:12;14.52;;;5.07;;
40669;SDS011;26355;45.528;9.234;2023-07-31T05:02:37;14.30;;;4.55;;
40669;SDS011;26355;45.528;9.234;2023-07-31T05:05:03;12.38;;;5.00;;
40669;SDS011;26355;45.528;9.234;2023-07-31T05:07:29;13.57;;;4.53;;
40669;SDS011;26355;45.528;9.234;2023-07-31T05:09:54;12.88;;;4.60;;
40669;SDS011;26355;45.528;9.234;2023-07-31T05:12:20;16.67;;;4.97;;
40669;SDS011;26355;45.528;9.234;2023-07-31T05:14:45;12.55;;;4.88;;
40669;SDS011;26355;45.528;9.234;2023-07-31T05:17:11;14.15;;;5.00;;
40669;SDS011;26355;45.528;9.234;2023-07-31T05:19:36;11.88;;;4.28;;
40669;SDS011;26355;45.528;9.234;2023-07-31T05:22:02;15.35;;;4.88;;
40669;SDS011;26355;45.528;9.234;2023-07-31T05:24:28;15.55;;;4.82;;
40669;SDS011;26355;45.528;9.234;2023-07-31T05:26:53;13.10;;;4.55;;
40669;SDS011;26355;45.528;9.234;2023-07-31T05:29:19;11.90;;;4.40;;
40669;SDS011;26355;45.528;9.234;2023-07-31T05:31:44;14.75;;;4.82;;
40669;SDS011;26355;45.528;9.234;2023-07-31T05:34:10;16.33;;;5.10;;
40669;SDS011;26355;45.528;9.234;2023-07-31T05:36:35;14.32;;;4.93;;
40669;SDS011;26355;45.528;9.234;2023-07-31T05:39:01;13.13;;;4.90;;
40669;SDS011;26355;45.528;9.234;2023-07-31T05:41:33;16.23;;;4.88;;
40669;SDS011;26355;45.528;9.234;2023-07-31T05:44:00;15.30;;;4.85;;
40669;SDS011;26355;45.528;9.234;2023-07-31T05:46:25;14.32;;;5.35;;
40669;SDS011;26355;45.528;9.234;2023-07-31T05:48:51;11.68;;;4.35;;
40669;SDS011;26355;45.528;9.234;2023-07-31T05:51:16;12.95;;;4.43;;
40669;SDS011;26355;45.528;9.234;2023-07-31T05:53:42;14.43;;;4.68;;
40669;SDS011;26355;45.528;9.234;2023-07-31T05:56:08;13.73;;;4.63;;
40669;SDS011;26355;45.528;9.234;2023-07-31T05:58:34;13.32;;;4.55;;
40669;SDS011;26355;45.528;9.234;2023-07-31T06:00:59;13.82;;;4.70;;
40669;SDS011;26355;45.528;9.234;2023-07-31T06:03:25;13.77;;;4.70;;
40669;SDS011;26355;45.528;9.234;2023-07-31T06:05:50;13.50;;;4.72;;
40669;SDS011;26355;45.528;9.234;2023-07-31T06:08:16;12.50;;;4.80;;
40669;SDS011;26355;45.528;9.234;2023-07-31T06:10:42;11.60;;;4.40;;
40669;SDS011;26355;45.528;9.234;2023-07-31T06:13:07;12.50;;;4.40;;
40669;SDS011;26355;45.528;9.234;2023-07-31T06:15:33;15.88;;;4.97;;
40669;SDS011;26355;45.528;9.234;2023-07-31T06:17:58;11.55;;;4.38;;
40669;SDS011;26355;45.528;9.234;2023-07-31T06:20:26;12.85;;;4.65;;
40669;SDS011;26355;45.528;9.234;2023-07-31T06:22:52;12.52;;;4.15;;
40669;SDS011;26355;45.528;9.234;2023-07-31T06:25:18;11.65;;;4.55;;
40669;SDS011;26355;45.528;9.234;2023-07-31T06:27:43;13.60;;;4.50;;
40669;SDS011;26355;45.528;9.234;2023-07-31T06:30:09;14.07;;;4.30;;
40669;SDS011;26355;45.528;9.234;2023-07-31T06:32:35;14.88;;;4.20;;
40669;SDS011;26355;45.528;9.234;2023-07-31T06:35:01;14.93;;;4.45;;
40669;SDS011;26355;45.528;9.234;2023-07-31T06:37:26;13.45;;;4.68;;
40669;SDS011;26355;45.528;9.234;2023-07-31T06:39:52;12.65;;;4.30;;
40669;SDS011;26355;45.528;9.234;2023-07-31T06:42:17;13.10;;;4.53;;
40669;SDS011;26355;45.528;9.234;2023-07-31T06:44:43;12.13;;;4.25;;
40669;SDS011;26355;45.528;9.234;2023-07-31T06:47:08;13.45;;;4.20;;
40669;SDS011;26355;45.528;9.234;2023-07-31T06:49:34;15.63;;;5.45;;
40669;SDS011;26355;45.528;9.234;2023-07-31T06:52:00;15.10;;;4.68;;
40669;SDS011;26355;45.528;9.234;2023-07-31T06:54:25;14.13;;;4.10;;
40669;SDS011;26355;45.528;9.234;2023-07-31T06:56:51;10.90;;;4.22;;
40669;SDS011;26355;45.528;9.234;2023-07-31T06:59:16;12.25;;;4.40;;
40669;SDS011;26355;45.528;9.234;2023-07-31T07:01:42;12.25;;;4.28;;
40669;SDS011;26355;45.528;9.234;2023-07-31T07:04:07;14.68;;;4.10;;
40669;SDS011;26355;45.528;9.234;2023-07-31T07:06:33;12.88;;;4.82;;
40669;SDS011;26355;45.528;9.234;2023-07-31T07:08:59;14.68;;;4.68;;
40669;SDS011;26355;45.528;9.234;2023-07-31T07:11:24;11.15;;;4.18;;
40669;SDS011;26355;45.528;9.234;2023-07-31T07:13:54;11.53;;;3.60;;
40669;SDS011;26355;45.528;9.234;2023-07-31T07:16:20;9.93;;;3.63;;
40669;SDS011;26355;45.528;9.234;2023-07-31T07:18:45;9.82;;;2.90;;
40669;SDS011;26355;45.528;9.234;2023-07-31T07:21:11;8.82;;;2.97;;
40669;SDS011;26355;45.528;9.234;2023-07-31T07:23:40;12.18;;;3.50;;
40669;SDS011;26355;45.528;9.234;2023-07-31T07:26:06;11.18;;;3.00;;
40669;SDS011;26355;45.528;9.234;2023-07-31T07:28:32;13.27;;;3.10;;
40669;SDS011;26355;45.528;9.234;2023-07-31T07:30:57;9.55;;;3.42;;
40669;SDS011;26355;45.528;9.234;2023-07-31T07:33:23;6.18;;;2.33;;
40669;SDS011;26355;45.528;9.234;2023-07-31T07:35:49;9.45;;;3.15;;
40669;SDS011;26355;45.528;9.234;2023-07-31T07:38:14;8.27;;;2.70;;
40669;SDS011;26355;45.528;9.234;2023-07-31T07:40:40;10.07;;;3.53;;
40669;SDS011;26355;45.528;9.234;2023-07-31T07:43:06;9.43;;;3.22;;
40669;SDS011;26355;45.528;9.234;2023-07-31T07:45:32;9.77;;;3.22;;
40669;SDS011;26355;45.528;9.234;2023-07-31T07:47:57;8.98;;;2.95;;
40669;SDS011;26355;45.528;9.234;2023-07-31T07:50:24;7.85;;;2.72;;
40669;SDS011;26355;45.528;9.234;2023-07-31T07:52:49;6.70;;;2.25;;
40669;SDS011;26355;45.528;9.234;2023-07-31T07:55:15;10.27;;;2.97;;
40669;SDS011;26355;45.528;9.234;2023-07-31T07:57:41;7.18;;;2.40;;
40669;SDS011;26355;45.528;9.234;2023-07-31T08:00:06;8.70;;;2.95;;
40669;SDS011;26355;45.528;9.234;2023-07-31T08:02:32;10.23;;;2.80;;
40669;SDS011;26355;45.528;9.234;2023-07-31T08:04:58;7.72;;;2.63;;
40669;SDS011;26355;45.528;9.234;2023-07-31T08:07:23;7.57;;;2.65;;
40669;SDS011;26355;45.528;9.234;2023-07-31T08:09:49;6.40;;;2.40;;
40669;SDS011;26355;45.528;9.234;2023-07-31T08:12:14;16.50;;;3.67;;
40669;SDS011;26355;45.528;9.234;2023-07-31T08:14:40;7.20;;;2.60;;
40669;SDS011;26355;45.528;9.234;2023-07-31T08:17:06;8.85;;;2.88;;
40669;SDS011;26355;45.528;9.234;2023-07-31T08:19:31;9.02;;;3.20;;
40669;SDS011;26355;45.528;9.234;2023-07-31T08:21:57;10.15;;;3.47;;
40669;SDS011;26355;45.528;9.234;2023-07-31T08:24:22;8.68;;;2.75;;
40669;SDS011;26355;45.528;9.234;2023-07-31T08:26:48;10.32;;;2.83;;
40669;SDS011;26355;45.528;9.234;2023-07-31T08:29:13;8.50;;;2.58;;
40669;SDS011;26355;45.528;9.234;2023-07-31T08:31:39;10.30;;;2.97;;
40669;SDS011;26355;45.528;9.234;2023-07-31T08:34:05;8.57;;;3.42;;
40669;SDS011;26355;45.528;9.234;2023-07-31T08:36:30;6.60;;;2.50;;
40669;SDS011;26355;45.528;9.234;2023-07-31T08:38:56;6.72;;;2.72;;
40669;SDS011;26355;45.528;9.234;2023-07-31T08:41:21;7.95;;;2.70;;
40669;SDS011;26355;45.528;9.234;2023-07-31T08:43:47;10.00;;;2.83;;
40669;SDS011;26355;45.528;9.234;2023-07-31T08:46:14;7.85;;;2.60;;
40669;SDS011;26355;45.528;9.234;2023-07-31T08:48:41;9.68;;;2.90;;
40669;SDS011;26355;45.528;9.234;2023-07-31T08:51:07;8.48;;;3.13;;
40669;SDS011;26355;45.528;9.234;2023-07-31T08:53:33;7.95;;;2.92;;
40669;SDS011;26355;45.528;9.234;2023-07-31T08:55:59;9.80;;;3.08;;
40669;SDS011;26355;45.528;9.234;2023-07-31T08:58:25;10.88;;;3.55;;
40669;SDS011;26355;45.528;9.234;2023-07-31T09:00:55;10.15;;;3.20;;
40669;SDS011;26355;45.528;9.234;2023-07-31T09:03:23;10.05;;;3.60;;
40669;SDS011;26355;45.528;9.234;2023-07-31T09:05:50;9.65;;;3.40;;
40669;SDS011;26355;45.528;9.234;2023-07-31T09:08:19;10.82;;;3.72;;
40669;SDS011;26355;45.528;9.234;2023-07-31T09:10:46;10.27;;;4.07;;
40669;SDS011;26355;45.528;9.234;2023-07-31T09:13:13;12.18;;;3.60;;
40669;SDS011;26355;45.528;9.234;2023-07-31T09:15:39;9.90;;;3.67;;
40669;SDS011;26355;45.528;9.234;2023-07-31T09:18:07;9.57;;;3.22;;
40669;SDS011;26355;45.528;9.234;2023-07-31T09:20:33;10.03;;;3.27;;
40669;SDS011;26355;45.528;9.234;2023-07-31T09:25:35;10.80;;;3.83;;
40669;SDS011;26355;45.528;9.234;2023-07-31T09:28:10;10.70;;;4.28;;
40669;SDS011;26355;45.528;9.234;2023-07-31T09:30:44;12.38;;;4.63;;
40669;SDS011;26355;45.528;9.234;2023-07-31T09:33:13;10.52;;;3.83;;
40669;SDS011;26355;45.528;9.234;2023-07-31T09:35:39;12.70;;;3.90;;
40669;SDS011;26355;45.528;9.234;2023-07-31T09:38:13;19.77;;;5.07;;
40669;SDS011;26355;45.528;9.234;2023-07-31T09:40:40;12.65;;;4.20;;
40669;SDS011;26355;45.528;9.234;2023-07-31T09:43:08;14.52;;;4.50;;
40669;SDS011;26355;45.528;9.234;2023-07-31T09:45:36;12.73;;;4.55;;
40669;SDS011;26355;45.528;9.234;2023-07-31T09:48:03;11.77;;;4.80;;
40669;SDS011;26355;45.528;9.234;2023-07-31T09:50:34;12.32;;;4.07;;
40669;SDS011;26355;45.528;9.234;2023-07-31T09:53:05;10.93;;;4.13;;
40669;SDS011;26355;45.528;9.234;2023-07-31T09:55:31;10.60;;;3.47;;
40669;SDS011;26355;45.528;9.234;2023-07-31T09:57:57;10.55;;;4.22;;
40669;SDS011;26355;45.528;9.234;2023-07-31T10:00:23;11.13;;;3.40;;
40669;SDS011;26355;45.528;9.234;2023-07-31T10:02:53;10.25;;;3.67;;
40669;SDS011;26355;45.528;9.234;2023-07-31T10:05:22;8.98;;;3.50;;
40669;SDS011;26355;45.528;9.234;2023-07-31T10:07:51;11.38;;;3.65;;
40669;SDS011;26355;45.528;9.234;2023-07-31T10:10:22;10.25;;;3.35;;
40669;SDS011;26355;45.528;9.234;2023-07-31T10:12:48;10.55;;;3.47;;
40669;SDS011;26355;45.528;9.234;2023-07-31T10:15:15;12.15;;;3.95;;
40669;SDS011;26355;45.528;9.234;2023-07-31T10:17:41;9.98;;;3.70;;
40669;SDS011;26355;45.528;9.234;2023-07-31T10:20:07;13.82;;;5.63;;
40669;SDS011;26355;45.528;9.234;2023-07-31T10:22:34;14.55;;;5.53;;
40669;SDS011;26355;45.528;9.234;2023-07-31T10:24:59;14.45;;;5.22;;
40669;SDS011;26355;45.528;9.234;2023-07-31T10:27:26;14.70;;;5.33;;
40669;SDS011;26355;45.528;9.234;2023-07-31T10:29:52;16.38;;;6.20;;
40669;SDS011;26355;45.528;9.234;2023-07-31T10:32:19;14.68;;;5.05;;
40669;SDS011;26355;45.528;9.234;2023-07-31T10:34:46;14.57;;;5.88;;
40669;SDS011;26355;45.528;9.234;2023-07-31T10:37:30;13.35;;;5.20;;
40669;SDS011;26355;45.528;9.234;2023-07-31T10:40:07;15.60;;;5.40;;
40669;SDS011;26355;45.528;9.234;2023-07-31T10:45:23;10.93;;;4.35;;
40669;SDS011;26355;45.528;9.234;2023-07-31T10:50:32;13.20;;;4.65;;
40669;SDS011;26355;45.528;9.234;2023-07-31T10:53:01;13.25;;;5.60;;
40669;SDS011;26355;45.528;9.234;2023-07-31T10:55:31;13.73;;;5.57;;
40669;SDS011;26355;45.528;9.234;2023-07-31T10:58:12;13.63;;;5.85;;
40669;SDS011;26355;45.528;9.234;2023-07-31T11:00:39;12.40;;;4.15;;
40669;SDS011;26355;45.528;9.234;2023-07-31T11:03:12;11.40;;;4.57;;
40669;SDS011;26355;45.528;9.234;2023-07-31T11:05:49;12.25;;;4.47;;
40669;SDS011;26355;45.528;9.234;2023-07-31T11:08:24;12.38;;;4.60;;
40669;SDS011;26355;45.528;9.234;2023-07-31T11:13:31;12.63;;;4.55;;
40669;SDS011;26355;45.528;9.234;2023-07-31T11:16:21;14.30;;;4.70;;
40669;SDS011;26355;45.528;9.234;2023-07-31T11:18:49;14.32;;;5.35;;
40669;SDS011;26355;45.528;9.234;2023-07-31T11:21:20;12.98;;;5.05;;
40669;SDS011;26355;45.528;9.234;2023-07-31T11:23:50;11.70;;;4.20;;
40669;SDS011;26355;45.528;9.234;2023-07-31T11:26:18;12.40;;;4.43;;
40669;SDS011;26355;45.528;9.234;2023-07-31T11:28:46;13.33;;;4.93;;
40669;SDS011;26355;45.528;9.234;2023-07-31T11:31:13;12.60;;;4.57;;
40669;SDS011;26355;45.528;9.234;2023-07-31T11:33:39;13.40;;;4.60;;
40669;SDS011;26355;45.528;9.234;2023-07-31T11:36:04;14.18;;;5.57;;
40669;SDS011;26355;45.528;9.234;2023-07-31T11:38:30;12.68;;;4.90;;
40669;SDS011;26355;45.528;9.234;2023-07-31T11:40:58;11.25;;;4.28;;
40669;SDS011;26355;45.528;9.234;2023-07-31T11:43:25;13.68;;;5.38;;
40669;SDS011;26355;45.528;9.234;2023-07-31T11:45:56;13.87;;;4.70;;
40669;SDS011;26355;45.528;9.234;2023-07-31T11:48:25;16.15;;;5.50;;
40669;SDS011;26355;45.528;9.234;2023-07-31T11:50:58;14.25;;;5.13;;
40669;SDS011;26355;45.528;9.234;2023-07-31T11:53:38;13.32;;;5.40;;
40669;SDS011;26355;45.528;9.234;2023-07-31T11:56:17;14.07;;;6.30;;
40669;SDS011;26355;45.528;9.234;2023-07-31T11:58:45;13.65;;;5.80;;
40669;SDS011;26355;45.528;9.234;2023-07-31T12:01:13;14.85;;;5.85;;
40669;SDS011;26355;45.528;9.234;2023-07-31T12:03:40;11.63;;;4.63;;
40669;SDS011;26355;45.528;9.234;2023-07-31T12:08:33;12.53;;;4.37;;
40669;SDS011;26355;45.528;9.234;2023-07-31T12:11:05;14.27;;;5.78;;
40669;SDS011;26355;45.528;9.234;2023-07-31T12:13:32;13.85;;;5.55;;
40669;SDS011;26355;45.528;9.234;2023-07-31T12:15:59;12.02;;;4.57;;
40669;SDS011;26355;45.528;9.234;2023-07-31T12:18:28;12.98;;;4.47;;
40669;SDS011;26355;45.528;9.234;2023-07-31T12:20:56;15.88;;;5.68;;
40669;SDS011;26355;45.528;9.234;2023-07-31T12:23:25;14.30;;;4.93;;
40669;SDS011;26355;45.528;9.234;2023-07-31T12:26:08;13.63;;;4.63;;
40669;SDS011;26355;45.528;9.234;2023-07-31T12:28:37;14.05;;;4.80;;
40669;SDS011;26355;45.528;9.234;2023-07-31T12:31:08;13.07;;;4.68;;
40669;SDS011;26355;45.528;9.234;2023-07-31T12:33:36;13.25;;;4.10;;
40669;SDS011;26355;45.528;9.234;2023-07-31T12:36:04;13.40;;;5.20;;
40669;SDS011;26355;45.528;9.234;2023-07-31T12:38:32;12.02;;;4.55;;
40669;SDS011;26355;45.528;9.234;2023-07-31T12:40:58;12.05;;;4.30;;
40669;SDS011;26355;45.528;9.234;2023-07-31T12:43:24;13.45;;;4.45;;
40669;SDS011;26355;45.528;9.234;2023-07-31T12:45:50;13.25;;;4.60;;
40669;SDS011;26355;45.528;9.234;2023-07-31T12:48:15;12.32;;;4.43;;
40669;SDS011;26355;45.528;9.234;2023-07-31T12:50:41;11.82;;;4.10;;
40669;SDS011;26355;45.528;9.234;2023-07-31T12:53:06;10.40;;;3.78;;
40669;SDS011;26355;45.528;9.234;2023-07-31T12:55:32;11.30;;;4.07;;
40669;SDS011;26355;45.528;9.234;2023-07-31T13:15:21;12.25;;;4.10;;
40669;SDS011;26355;45.528;9.234;2023-07-31T13:22:13;10.48;;;4.07;;
40669;SDS011;26355;45.528;9.234;2023-07-31T13:25:29;11.43;;;4.35;;
40669;SDS011;26355;45.528;9.234;2023-07-31T13:39:11;13.15;;;3.90;;
40669;SDS011;26355;45.528;9.234;2023-07-31T13:42:37;10.20;;;3.88;;
40669;SDS011;26355;45.528;9.234;2023-07-31T13:45:59;10.55;;;3.97;;
40669;SDS011;26355;45.528;9.234;2023-07-31T13:48:31;11.93;;;4.68;;
40669;SDS011;26355;45.528;9.234;2023-07-31T13:50:59;9.88;;;3.97;;
40669;SDS011;26355;45.528;9.234;2023-07-31T13:53:25;12.73;;;4.45;;
40669;SDS011;26355;45.528;9.234;2023-07-31T13:55:50;10.80;;;4.55;;
40669;SDS011;26355;45.528;9.234;2023-07-31T13:58:17;11.68;;;4.10;;
40669;SDS011;26355;45.528;9.234;2023-07-31T14:00:55;11.20;;;3.67;;
40669;SDS011;26355;45.528;9.234;2023-07-31T14:03:23;12.00;;;4.10;;
40669;SDS011;26355;45.528;9.234;2023-07-31T14:05:48;9.48;;;3.97;;
40669;SDS011;26355;45.528;9.234;2023-07-31T14:08:14;10.23;;;4.07;;
40669;SDS011;26355;45.528;9.234;2023-07-31T14:10:40;12.93;;;4.10;;
40669;SDS011;26355;45.528;9.234;2023-07-31T14:13:05;12.70;;;4.53;;
40669;SDS011;26355;45.528;9.234;2023-07-31T14:15:31;9.63;;;3.47;;
40669;SDS011;26355;45.528;9.234;2023-07-31T14:17:59;10.90;;;4.20;;
40669;SDS011;26355;45.528;9.234;2023-07-31T14:20:25;11.02;;;4.40;;
40669;SDS011;26355;45.528;9.234;2023-07-31T14:22:51;11.60;;;4.30;;
40669;SDS011;26355;45.528;9.234;2023-07-31T14:25:16;11.23;;;4.28;;
40669;SDS011;26355;45.528;9.234;2023-07-31T14:27:42;13.43;;;4.25;;
40669;SDS011;26355;45.528;9.234;2023-07-31T14:30:08;11.95;;;4.18;;
40669;SDS011;26355;45.528;9.234;2023-07-31T14:32:45;13.32;;;4.22;;
40669;SDS011;26355;45.528;9.234;2023-07-31T14:35:14;13.48;;;4.50;;
40669;SDS011;26355;45.528;9.234;2023-07-31T14:37:41;9.98;;;3.78;;
40669;SDS011;26355;45.528;9.234;2023-07-31T14:40:08;11.38;;;4.43;;
40669;SDS011;26355;45.528;9.234;2023-07-31T14:42:35;13.70;;;4.07;;
40669;SDS011;26355;45.528;9.234;2023-07-31T14:45:02;11.20;;;3.95;;
40669;SDS011;26355;45.528;9.234;2023-07-31T14:49:56;11.45;;;4.50;;
40669;SDS011;26355;45.528;9.234;2023-07-31T14:52:21;11.50;;;4.22;;
40669;SDS011;26355;45.528;9.234;2023-07-31T14:54:47;12.30;;;4.50;;
40669;SDS011;26355;45.528;9.234;2023-07-31T14:57:13;11.43;;;3.97;;
40669;SDS011;26355;45.528;9.234;2023-07-31T14:59:38;10.18;;;4.20;;
40669;SDS011;26355;45.528;9.234;2023-07-31T15:02:04;10.93;;;4.25;;
40669;SDS011;26355;45.528;9.234;2023-07-31T15:04:30;10.57;;;3.72;;
40669;SDS011;26355;45.528;9.234;2023-07-31T15:06:56;11.80;;;3.85;;
40669;SDS011;26355;45.528;9.234;2023-07-31T15:09:21;12.25;;;3.88;;
40669;SDS011;26355;45.528;9.234;2023-07-31T15:11:47;10.52;;;3.97;;
40669;SDS011;26355;45.528;9.234;2023-07-31T15:14:12;11.82;;;3.90;;
40669;SDS011;26355;45.528;9.234;2023-07-31T15:51:03;12.60;;;3.90;;
40669;SDS011;26355;45.528;9.234;2023-07-31T15:53:29;11.35;;;3.92;;
40669;SDS011;26355;45.528;9.234;2023-07-31T15:55:56;10.60;;;3.83;;
40669;SDS011;26355;45.528;9.234;2023-07-31T15:58:22;10.85;;;3.85;;
40669;SDS011;26355;45.528;9.234;2023-07-31T16:00:48;9.88;;;3.50;;
40669;SDS011;26355;45.528;9.234;2023-07-31T16:03:20;10.75;;;3.90;;
40669;SDS011;26355;45.528;9.234;2023-07-31T16:05:55;11.00;;;3.47;;
40669;SDS011;26355;45.528;9.234;2023-07-31T16:08:21;9.18;;;3.55;;
40669;SDS011;26355;45.528;9.234;2023-07-31T16:11:00;9.60;;;3.42;;
40669;SDS011;26355;45.528;9.234;2023-07-31T16:14:10;9.55;;;3.40;;
40669;SDS011;26355;45.528;9.234;2023-07-31T16:17:08;10.32;;;3.33;;
40669;SDS011;26355;45.528;9.234;2023-07-31T16:19:36;11.82;;;3.60;;
40669;SDS011;26355;45.528;9.234;2023-07-31T16:22:05;8.40;;;3.50;;
40669;SDS011;26355;45.528;9.234;2023-07-31T16:24:31;9.75;;;3.50;;
40669;SDS011;26355;45.528;9.234;2023-07-31T16:27:05;15.02;;;3.97;;
40669;SDS011;26355;45.528;9.234;2023-07-31T16:29:40;10.45;;;3.67;;
40669;SDS011;26355;45.528;9.234;2023-07-31T16:32:06;12.20;;;3.97;;
40669;SDS011;26355;45.528;9.234;2023-07-31T16:34:32;9.35;;;3.80;;
40669;SDS011;26355;45.528;9.234;2023-07-31T16:37:05;10.88;;;3.40;;
40669;SDS011;26355;45.528;9.234;2023-07-31T16:39:35;11.43;;;3.40;;
40669;SDS011;26355;45.528;9.234;2023-07-31T16:42:05;9.52;;;3.28;;
40669;SDS011;26355;45.528;9.234;2023-07-31T16:44:49;10.65;;;3.42;;
40669;SDS011;26355;45.528;9.234;2023-07-31T16:47:15;9.55;;;3.50;;
40669;SDS011;26355;45.528;9.234;2023-07-31T16:49:44;10.23;;;3.75;;
40669;SDS011;26355;45.528;9.234;2023-07-31T16:52:25;10.75;;;3.72;;
40669;SDS011;26355;45.528;9.234;2023-07-31T16:54:56;11.15;;;3.55;;
40669;SDS011;26355;45.528;9.234;2023-07-31T16:57:22;10.93;;;3.88;;
40669;SDS011;26355;45.528;9.234;2023-07-31T16:59:55;10.27;;;3.90;;
40669;SDS011;26355;45.528;9.234;2023-07-31T17:02:24;9.77;;;3.35;;
40669;SDS011;26355;45.528;9.234;2023-07-31T17:05:10;12.05;;;3.72;;
40669;SDS011;26355;45.528;9.234;2023-07-31T17:07:39;9.98;;;3.90;;
40669;SDS011;26355;45.528;9.234;2023-07-31T17:10:07;9.88;;;3.30;;
40669;SDS011;26355;45.528;9.234;2023-07-31T17:12:33;9.02;;;3.30;;
40669;SDS011;26355;45.528;9.234;2023-07-31T17:14:58;11.85;;;3.80;;